Time;durP1;ratioP1;P1;durP2;ratioP2;P2;SDS_P1;SDS_P2;PMS_P1;PMS_P2;Temp;Humidity;BMP_temperature;BMP_pressure;BME280_temperature;BME280_humidity;BME280_pressure;Samples;Min_cycle;Max_cycle;Signal;HPM_P1;HPM_P2
2021/01/10 00:00:04;;;;;;;11.90;8.87;;;5.00;76.20;;;;;;5090632;28;20621;-49
2021/01/10 00:02:31;;;;;;;10.17;8.47;;;5.10;75.80;;;;;;5109848;28;20623;-48
2021/01/10 00:04:58;;;;;;;10.27;8.50;;;5.10;75.40;;;;;;5107257;28;20954;-48
2021/01/10 00:07:25;;;;;;;10.93;8.33;;;5.20;75.10;;;;;;5109035;28;20639;-47
2021/01/10 00:09:52;;;;;;;12.20;10.93;;;5.10;74.40;;;;;;5112074;28;20655;-50
2021/01/10 00:12:20;;;;;;;13.20;8.93;;;4.90;73.80;;;;;;5095103;28;20704;-48
2021/01/10 00:14:48;;;;;;;11.40;10.20;;;4.80;74.90;;;;;;5090894;28;20666;-47
2021/01/10 00:17:15;;;;;;;10.55;9.07;;;4.70;76.00;;;;;;5081492;28;20678;-47
2021/01/10 00:19:43;;;;;;;12.40;9.80;;;4.60;76.50;;;;;;5090245;28;20620;-49
2021/01/10 00:22:11;;;;;;;10.80;9.50;;;4.70;77.40;;;;;;5100210;28;20624;-49
2021/01/10 00:24:38;;;;;;;8.85;7.63;;;4.70;76.90;;;;;;5084309;28;20625;-48
2021/01/10 00:27:07;;;;;;;10.60;8.70;;;4.60;77.00;;;;;;5092940;28;20267;-48
2021/01/10 00:29:35;;;;;;;9.60;8.47;;;4.60;77.30;;;;;;5074438;28;20275;-48
2021/01/10 00:32:03;;;;;;;12.60;9.90;;;4.60;77.20;;;;;;5103940;28;20692;-48
2021/01/10 00:34:30;;;;;;;12.73;9.07;;;4.60;76.90;;;;;;5090172;28;21179;-48
2021/01/10 00:36:57;;;;;;;12.30;8.80;;;4.60;76.70;;;;;;5077680;28;20656;-49
2021/01/10 00:39:24;;;;;;;10.50;9.40;;;4.60;76.60;;;;;;5070903;28;21054;-49
2021/01/10 00:41:51;;;;;;;9.67;8.63;;;4.60;76.50;;;;;;5098284;28;20631;-48
2021/01/10 00:44:17;;;;;;;10.33;9.20;;;4.70;76.70;;;;;;5090627;28;21236;-48
2021/01/10 00:46:44;;;;;;;10.93;9.00;;;4.70;77.30;;;;;;5101233;28;20704;-49
2021/01/10 00:49:12;;;;;;;13.60;9.80;;;4.80;77.70;;;;;;5089087;28;21191;-48
2021/01/10 00:51:39;;;;;;;12.27;9.70;;;4.90;77.50;;;;;;5100617;28;20686;-49
2021/01/10 00:54:06;;;;;;;11.57;9.60;;;4.90;77.30;;;;;;5096290;28;20624;-49
2021/01/10 00:56:32;;;;;;;9.67;8.67;;;4.80;76.70;;;;;;5087407;28;21267;-48
2021/01/10 00:58:59;;;;;;;12.03;9.07;;;4.80;76.80;;;;;;5087260;28;20620;-50
2021/01/10 01:01:26;;;;;;;13.43;8.00;;;4.70;76.80;;;;;;5088017;28;20620;-48
2021/01/10 01:03:53;;;;;;;16.03;11.80;;;4.70;77.00;;;;;;5088823;28;20624;-48
2021/01/10 01:06:20;;;;;;;9.57;7.97;;;4.60;77.00;;;;;;5088473;28;21199;-48
2021/01/10 01:08:47;;;;;;;10.17;9.10;;;4.70;77.10;;;;;;5088294;28;20282;-49
2021/01/10 01:11:14;;;;;;;10.97;9.27;;;4.60;77.30;;;;;;5086369;28;20627;-49
2021/01/10 01:13:41;;;;;;;10.30;8.43;;;4.70;78.00;;;;;;5088842;28;20632;-47
2021/01/10 01:16:07;;;;;;;10.30;9.20;;;4.70;77.80;;;;;;5090304;28;20721;-47
2021/01/10 01:18:34;;;;;;;13.13;9.70;;;4.60;77.80;;;;;;5090349;28;20636;-48
2021/01/10 01:21:01;;;;;;;11.40;10.10;;;4.60;77.50;;;;;;5090889;28;20632;-48
2021/01/10 01:23:29;;;;;;;9.60;8.60;;;4.50;77.80;;;;;;5072492;28;20627;-48
2021/01/10 01:25:55;;;;;;;9.73;8.80;;;4.40;78.20;;;;;;5091205;28;21044;-48
2021/01/10 01:28:22;;;;;;;10.30;8.93;;;4.40;78.60;;;;;;5090653;28;20689;-49
2021/01/10 01:30:49;;;;;;;8.97;7.93;;;4.40;78.70;;;;;;5090617;28;20663;-49
2021/01/10 01:33:16;;;;;;;10.77;8.60;;;4.30;79.40;;;;;;5091117;28;20693;-48
2021/01/10 01:35:42;;;;;;;9.02;8.13;;;4.30;79.60;;;;;;5090555;28;20264;-49
2021/01/10 01:38:09;;;;;;;9.10;7.97;;;4.40;80.10;;;;;;5089084;28;20201;-47
2021/01/10 01:40:37;;;;;;;9.40;8.43;;;4.40;80.10;;;;;;5090546;28;20686;-49
2021/01/10 01:43:05;;;;;;;15.03;9.13;;;4.40;80.40;;;;;;5090219;28;20693;-48
2021/01/10 01:45:32;;;;;;;11.80;9.20;;;4.40;79.90;;;;;;5090024;28;21254;-47
2021/01/10 01:48:01;;;;;;;11.17;8.20;;;4.40;79.80;;;;;;5089752;28;20639;-49
2021/01/10 01:50:28;;;;;;;10.10;8.30;;;4.40;79.60;;;;;;5090033;28;21163;-48
2021/01/10 01:52:54;;;;;;;9.10;8.20;;;4.30;79.30;;;;;;5089799;28;20208;-49
2021/01/10 01:55:21;;;;;;;10.13;9.02;;;4.30;79.30;;;;;;5090016;28;20624;-48
2021/01/10 01:57:49;;;;;;;12.90;9.93;;;4.20;79.40;;;;;;5086774;28;20566;-49
2021/01/10 02:00:16;;;;;;;11.32;8.82;;;4.20;79.70;;;;;;5077052;28;20210;-49
2021/01/10 02:02:43;;;;;;;9.68;8.20;;;4.20;80.00;;;;;;5089313;28;20756;-48
2021/01/10 02:05:12;;;;;;;13.05;8.30;;;4.10;80.00;;;;;;5089535;28;20214;-48
2021/01/10 02:07:41;;;;;;;12.05;9.00;;;4.20;80.00;;;;;;5089600;28;20259;-48
2021/01/10 02:10:09;;;;;;;13.07;10.80;;;4.20;79.80;;;;;;5089864;28;20222;-47
2021/01/10 02:12:36;;;;;;;13.23;9.45;;;4.20;79.20;;;;;;5089410;28;20589;-48
2021/01/10 02:15:08;;;;;;;11.82;9.50;;;4.20;79.00;;;;;;5089144;28;20257;-48
2021/01/10 02:17:35;;;;;;;10.82;9.73;;;4.10;78.80;;;;;;5089225;28;20788;-47
2021/01/10 02:20:06;;;;;;;9.43;8.50;;;3.90;78.70;;;;;;5091631;28;20214;-48
2021/01/10 02:22:33;;;;;;;11.82;9.40;;;3.60;79.20;;;;;;5093890;28;20753;-47
2021/01/10 02:25:01;;;;;;;11.10;9.67;;;3.40;80.40;;;;;;5093143;28;20262;-48
2021/01/10 02:27:28;;;;;;;11.68;9.68;;;3.20;81.60;;;;;;5093116;28;20658;-48
2021/01/10 02:29:54;;;;;;;12.57;10.43;;;3.20;82.70;;;;;;5093278;28;20287;-48
2021/01/10 02:32:21;;;;;;;10.95;9.85;;;3.30;83.00;;;;;;5092422;28;20206;-49
2021/01/10 02:34:48;;;;;;;10.82;9.43;;;3.20;82.40;;;;;;5093320;28;20213;-47
2021/01/10 02:37:21;;;;;;;13.65;10.77;;;3.20;82.70;;;;;;5092390;28;20271;-47
2021/01/10 02:39:57;;;;;;;11.35;10.15;;;3.20;83.20;;;;;;5092872;28;20523;-48
2021/01/10 02:42:27;;;;;;;12.68;8.50;;;3.20;83.00;;;;;;5093421;28;20247;-47
2021/01/10 02:44:57;;;;;;;11.10;9.15;;;3.30;82.70;;;;;;5092244;28;20210;-47
2021/01/10 02:47:24;;;;;;;10.90;9.73;;;3.30;82.30;;;;;;5092573;28;20245;-47
2021/01/10 02:49:51;;;;;;;11.15;9.55;;;3.40;82.20;;;;;;5092664;28;20216;-46
2021/01/10 02:52:17;;;;;;;9.05;8.15;;;3.40;82.60;;;;;;5092907;28;20202;-47
2021/01/10 02:54:44;;;;;;;12.32;10.18;;;3.40;82.80;;;;;;5093000;28;20286;-47
2021/01/10 02:57:15;;;;;;;13.65;9.15;;;3.50;82.40;;;;;;5092800;28;20226;-47
2021/01/10 02:59:43;;;;;;;12.40;9.85;;;3.50;81.90;;;;;;5093741;28;20642;-47
2021/01/10 03:02:11;;;;;;;11.23;9.52;;;3.50;81.30;;;;;;5092795;28;20213;-48
2021/01/10 03:04:38;;;;;;;13.70;8.73;;;3.50;81.30;;;;;;5092140;28;20258;-46
2021/01/10 03:07:05;;;;;;;9.82;8.18;;;3.50;81.30;;;;;;5092104;28;20289;-47
2021/01/10 03:09:31;;;;;;;10.45;9.32;;;3.60;81.20;;;;;;5092295;28;20319;-47
2021/01/10 03:12:12;;;;;;;10.63;8.88;;;3.60;81.20;;;;;;5093374;28;20358;-46
2021/01/10 03:14:41;;;;;;;10.27;9.27;;;3.70;80.90;;;;;;5092528;28;20561;-47
2021/01/10 03:17:09;;;;;;;10.85;8.70;;;3.70;80.20;;;;;;5099875;22;20225;-52
2021/01/10 03:19:36;;;;;;;11.43;9.45;;;3.70;79.80;;;;;;5054750;28;20206;-54
2021/01/10 03:22:03;;;;;;;10.73;8.77;;;3.70;79.40;;;;;;5073051;28;20290;-54
2021/01/10 03:24:29;;;;;;;11.70;10.50;;;3.60;79.20;;;;;;5072925;28;20276;-54
2021/01/10 03:26:56;;;;;;;10.82;8.48;;;3.70;79.30;;;;;;5054655;28;20780;-54
2021/01/10 03:29:23;;;;;;;13.43;10.50;;;3.60;79.30;;;;;;5052702;28;20207;-54
2021/01/10 03:31:49;;;;;;;13.25;9.45;;;3.60;80.00;;;;;;5052628;28;20204;-54
2021/01/10 03:34:17;;;;;;;14.07;9.80;;;3.70;79.30;;;;;;5052772;28;20215;-54
2021/01/10 03:36:44;;;;;;;10.30;9.20;;;3.70;79.20;;;;;;5052158;28;20223;-54
2021/01/10 03:39:11;;;;;;;10.75;9.65;;;3.70;78.80;;;;;;5052575;28;20200;-54
2021/01/10 03:41:37;;;;;;;11.70;8.55;;;3.70;78.80;;;;;;5047160;28;20207;-54
2021/01/10 03:44:04;;;;;;;10.50;9.40;;;3.70;78.90;;;;;;5051673;28;20206;-54
2021/01/10 03:46:31;;;;;;;10.07;9.05;;;3.60;78.60;;;;;;5034218;28;20562;-54
2021/01/10 03:48:58;;;;;;;9.48;8.10;;;3.60;78.50;;;;;;5052001;28;20199;-54
2021/01/10 03:51:28;;;;;;;9.57;8.52;;;3.60;78.70;;;;;;5051446;28;20703;-54
2021/01/10 03:53:55;;;;;;;8.57;7.78;;;3.60;79.00;;;;;;5052809;28;20211;-54
2021/01/10 03:56:22;;;;;;;10.25;8.50;;;3.70;79.40;;;;;;5052168;28;20199;-54
2021/01/10 03:58:49;;;;;;;11.38;8.77;;;3.70;79.60;;;;;;5051775;28;20680;-52
2021/01/10 04:01:15;;;;;;;10.65;8.07;;;3.70;79.10;;;;;;5052236;28;20671;-53
2021/01/10 04:03:42;;;;;;;10.10;8.45;;;3.80;78.40;;;;;;5051890;28;20241;-55
2021/01/10 04:06:09;;;;;;;11.20;8.20;;;3.80;77.70;;;;;;5051917;28;20566;-54
2021/01/10 04:08:37;;;;;;;10.57;8.23;;;3.80;77.30;;;;;;5051797;28;20707;-53
2021/01/10 04:11:03;;;;;;;9.80;8.90;;;3.80;77.60;;;;;;5052336;28;20223;-54
2021/01/10 04:13:30;;;;;;;9.88;8.90;;;3.70;77.70;;;;;;5033767;28;20234;-54
2021/01/10 04:15:57;;;;;;;8.82;7.80;;;3.70;77.90;;;;;;5051970;28;20309;-54
2021/01/10 04:18:24;;;;;;;9.73;8.73;;;3.70;78.10;;;;;;5050964;28;20753;-54
2021/01/10 04:20:50;;;;;;;9.15;7.03;;;3.80;77.80;;;;;;5052045;28;20215;-54
2021/01/10 04:23:17;;;;;;;8.45;7.60;;;3.90;77.80;;;;;;5051865;28;20546;-54
2021/01/10 04:25:45;;;;;;;10.00;8.15;;;3.80;77.60;;;;;;5051768;28;20226;-54
2021/01/10 04:28:12;;;;;;;9.43;7.82;;;3.80;77.70;;;;;;5052143;28;20242;-55
2021/01/10 04:30:38;;;;;;;10.18;8.82;;;3.70;77.60;;;;;;5051582;28;20568;-55
2021/01/10 04:33:05;;;;;;;7.82;6.65;;;3.80;78.00;;;;;;5050966;28;20211;-53
2021/01/10 04:35:32;;;;;;;9.73;8.70;;;3.80;78.00;;;;;;5052096;28;20204;-53
2021/01/10 04:37:58;;;;;;;10.02;7.50;;;3.70;78.20;;;;;;5053140;28;20280;-53
2021/01/10 04:40:25;;;;;;;8.88;7.97;;;3.70;78.50;;;;;;5052547;28;20200;-52
2021/01/10 04:42:53;;;;;;;8.45;7.75;;;3.70;78.90;;;;;;5052388;28;20284;-54
2021/01/10 04:45:20;;;;;;;11.05;7.82;;;3.70;78.80;;;;;;5052031;28;20206;-55
2021/01/10 04:47:47;;;;;;;7.50;6.73;;;3.70;79.00;;;;;;5051473;28;20246;-55
2021/01/10 04:50:14;;;;;;;8.80;7.90;;;3.70;79.90;;;;;;5051278;28;20751;-58
2021/01/10 04:52:40;;;;;;;8.90;8.00;;;3.70;79.20;;;;;;5051705;28;20261;-56
2021/01/10 04:55:08;;;;;;;9.93;7.45;;;3.70;79.10;;;;;;5051466;28;20268;-56
2021/01/10 04:57:34;;;;;;;8.60;7.50;;;3.60;78.80;;;;;;5050998;28;20694;-54
2021/01/10 05:00:05;;;;;;;8.35;6.65;;;3.50;79.10;;;;;;5033534;28;20643;-56
2021/01/10 05:02:32;;;;;;;6.57;5.88;;;3.60;79.40;;;;;;5051588;28;20199;-56
2021/01/10 05:04:59;;;;;;;8.57;7.18;;;3.60;79.30;;;;;;5050973;28;20271;-56
2021/01/10 05:07:27;;;;;;;7.88;6.47;;;3.50;79.50;;;;;;5051311;28;20282;-56
2021/01/10 05:09:53;;;;;;;9.02;7.88;;;3.60;80.60;;;;;;5051165;28;20208;-55
2021/01/10 05:12:20;;;;;;;7.90;6.70;;;3.60;79.60;;;;;;5051126;28;20744;-56
2021/01/10 05:14:47;;;;;;;6.87;5.60;;;3.70;80.10;;;;;;5051151;28;20642;-54
2021/01/10 05:17:20;;;;;;;8.77;7.68;;;3.70;80.40;;;;;;5031621;28;20665;-56
2021/01/10 05:19:47;;;;;;;8.95;8.05;;;3.80;80.60;;;;;;5051035;28;20200;-56
2021/01/10 05:22:15;;;;;;;10.10;7.97;;;3.80;80.40;;;;;;5051171;28;20691;-56
2021/01/10 05:24:42;;;;;;;8.93;8.02;;;3.90;80.30;;;;;;5050844;28;20684;-56
2021/01/10 05:27:09;;;;;;;9.38;8.48;;;3.90;80.30;;;;;;5050638;28;20789;-56
2021/01/10 05:29:36;;;;;;;10.95;7.85;;;4.00;80.60;;;;;;5050789;28;20203;-56
2021/01/10 05:32:03;;;;;;;9.32;7.95;;;4.00;81.20;;;;;;5050804;28;20245;-54
2021/01/10 05:34:32;;;;;;;8.77;6.63;;;4.10;81.10;;;;;;5050186;28;20210;-53
2021/01/10 05:36:59;;;;;;;10.07;8.75;;;4.10;80.90;;;;;;5050537;28;20226;-54
2021/01/10 05:39:27;;;;;;;9.60;6.93;;;4.10;80.90;;;;;;5050575;28;20200;-54
2021/01/10 05:41:55;;;;;;;8.15;7.35;;;4.10;80.90;;;;;;5046989;28;20196;-53
2021/01/10 05:44:22;;;;;;;9.47;7.17;;;4.10;80.70;;;;;;5031299;28;20244;-53
2021/01/10 05:46:48;;;;;;;9.70;8.07;;;4.10;80.70;;;;;;5030407;28;20715;-53
2021/01/10 05:49:21;;;;;;;11.30;9.20;;;4.10;80.60;;;;;;5048989;28;20634;-54
2021/01/10 05:51:49;;;;;;;10.02;8.88;;;4.20;80.40;;;;;;5049509;28;21070;-54
2021/01/10 05:54:35;;;;;;;8.75;7.85;;;4.20;80.20;;;;;;5052048;28;20562;-54
2021/01/10 05:57:03;;;;;;;10.50;7.90;;;4.20;81.10;;;;;;5054453;28;20231;-54
2021/01/10 05:59:30;;;;;;;11.80;9.00;;;4.30;80.40;;;;;;5054883;28;20636;-54
2021/01/10 06:01:57;;;;;;;10.90;8.70;;;4.20;80.30;;;;;;5053934;28;20622;-53
2021/01/10 06:04:24;;;;;;;9.38;7.80;;;4.20;80.30;;;;;;5053852;28;20630;-54
2021/01/10 06:06:52;;;;;;;10.52;8.07;;;4.20;80.30;;;;;;5054378;28;20227;-54
2021/01/10 06:09:19;;;;;;;12.03;7.50;;;4.20;80.60;;;;;;5054075;28;20207;-57
2021/01/10 06:11:45;;;;;;;10.57;7.85;;;4.20;80.70;;;;;;5054544;28;20670;-56
2021/01/10 06:14:22;;;;;;;10.15;7.80;;;4.20;81.10;;;;;;5054335;28;20345;-56
2021/01/10 06:16:53;;;;;;;12.10;8.67;;;4.20;80.70;;;;;;5053919;28;20227;-56
2021/01/10 06:19:19;;;;;;;9.95;7.60;;;4.20;81.10;;;;;;5053725;28;20691;-53
2021/01/10 06:21:47;;;;;;;8.30;7.07;;;4.20;80.80;;;;;;5053510;28;20203;-53
2021/01/10 06:24:17;;;;;;;8.70;7.68;;;4.10;80.60;;;;;;5054179;28;20667;-56
2021/01/10 06:26:47;;;;;;;9.00;7.93;;;4.10;80.80;;;;;;5053793;28;20762;-55
2021/01/10 06:29:14;;;;;;;7.57;6.85;;;4.00;80.70;;;;;;5053915;28;20626;-56
2021/01/10 06:31:47;;;;;;;8.30;7.45;;;4.00;81.10;;;;;;5053395;28;20211;-56
2021/01/10 06:34:14;;;;;;;10.10;8.30;;;4.00;80.70;;;;;;5053961;28;20207;-55
2021/01/10 06:36:42;;;;;;;8.55;7.22;;;3.90;80.70;;;;;;5053476;28;20273;-55
2021/01/10 06:39:09;;;;;;;10.13;7.57;;;3.90;81.70;;;;;;5053867;28;20195;-55
2021/01/10 06:42:08;;;;;;;8.70;7.80;;;3.80;81.20;;;;;;5053360;28;20207;-56
2021/01/10 06:44:36;;;;;;;8.32;7.40;;;3.80;80.90;;;;;;5054045;28;20562;-56
2021/01/10 06:47:03;;;;;;;7.88;7.15;;;3.70;81.20;;;;;;5053470;28;20251;-56
2021/01/10 06:49:29;;;;;;;8.15;6.95;;;3.70;81.70;;;;;;5053247;28;20204;-57
2021/01/10 06:51:57;;;;;;;8.32;7.40;;;3.70;83.00;;;;;;5034671;28;20211;-56
2021/01/10 06:54:24;;;;;;;9.15;7.22;;;3.60;82.30;;;;;;5053109;28;20231;-55
2021/01/10 06:56:51;;;;;;;9.35;7.97;;;3.60;82.10;;;;;;5053216;28;20259;-55
2021/01/10 06:59:20;;;;;;;9.73;7.10;;;3.50;82.60;;;;;;5053704;28;20206;-55
2021/01/10 07:02:02;;;;;;;8.95;7.93;;;3.50;83.20;;;;;;5038737;28;20200;-55
2021/01/10 07:04:54;;;;;;;8.38;7.45;;;3.50;83.00;;;;;;5037809;28;20208;-56
2021/01/10 07:07:40;;;;;;;8.57;7.55;;;3.60;82.50;;;;;;5053048;28;20273;-56
2021/01/10 07:10:11;;;;;;;8.20;6.90;;;3.60;81.90;;;;;;5053219;28;20208;-55
2021/01/10 07:12:38;;;;;;;9.40;8.48;;;3.70;82.20;;;;;;5053363;28;20632;-54
2021/01/10 07:15:27;;;;;;;8.95;7.38;;;3.70;82.70;;;;;;5052667;28;20203;-55
2021/01/10 07:18:10;;;;;;;8.70;7.75;;;3.60;81.60;;;;;;5051403;28;20285;-55
2021/01/10 07:20:43;;;;;;;9.90;7.93;;;3.60;82.50;;;;;;5033391;28;20207;-53
2021/01/10 07:23:32;;;;;;;14.93;9.18;;;3.60;82.80;;;;;;5033344;28;20765;-54
2021/01/10 07:25:59;;;;;;;10.25;8.93;;;3.60;83.10;;;;;;5045853;28;20199;-52
2021/01/10 07:28:40;;;;;;;12.05;9.85;;;3.60;83.10;;;;;;5052696;28;20215;-53
2021/01/10 07:31:25;;;;;;;8.00;7.20;;;3.60;83.30;;;;;;5052857;28;20219;-54
2021/01/10 07:34:11;;;;;;;10.30;8.77;;;3.70;82.70;;;;;;5033605;28;20274;-53
2021/01/10 07:36:49;;;;;;;12.35;8.55;;;3.70;82.30;;;;;;5052742;28;20206;-54
2021/01/10 07:39:17;;;;;;;10.13;8.43;;;3.70;81.80;;;;;;5052576;28;20207;-53
2021/01/10 07:41:44;;;;;;;11.45;9.30;;;3.60;82.30;;;;;;5052749;28;20211;-56
2021/01/10 07:44:10;;;;;;;12.00;9.90;;;3.70;83.00;;;;;;5037799;28;20257;-55
2021/01/10 07:47:02;;;;;;;16.05;9.75;;;3.70;83.10;;;;;;5052283;28;20209;-54
2021/01/10 07:49:31;;;;;;;10.18;9.07;;;3.80;83.10;;;;;;5052215;28;20298;-54
2021/01/10 07:51:58;;;;;;;12.23;9.60;;;3.70;82.20;;;;;;5044968;28;20631;-54
2021/01/10 07:54:53;;;;;;;12.38;9.50;;;3.70;82.00;;;;;;5052153;28;20569;-55
2021/01/10 07:57:27;;;;;;;10.40;9.07;;;3.70;82.00;;;;;;5035797;28;20613;-56
2021/01/10 08:00:21;;;;;;;9.23;8.20;;;3.70;82.60;;;;;;5036167;28;20731;-54
2021/01/10 08:02:54;;;;;;;9.45;8.45;;;3.70;83.00;;;;;;5054971;28;20686;-53
2021/01/10 08:05:22;;;;;;;11.07;9.45;;;3.70;83.40;;;;;;5051503;28;20269;-54
2021/01/10 08:07:56;;;;;;;10.07;8.88;;;3.70;83.70;;;;;;5040948;28;20269;-54
2021/01/10 08:10:24;;;;;;;14.50;9.40;;;3.80;83.50;;;;;;5051401;28;20204;-54
2021/01/10 08:12:51;;;;;;;11.15;9.10;;;3.80;82.60;;;;;;5040525;28;20739;-54
2021/01/10 08:15:18;;;;;;;11.25;9.38;;;3.80;82.50;;;;;;5051511;28;20555;-55
2021/01/10 08:17:45;;;;;;;11.65;9.48;;;3.80;82.60;;;;;;5050707;28;20281;-54
2021/01/10 08:20:14;;;;;;;10.65;9.65;;;3.90;83.00;;;;;;5046220;28;20652;-54
2021/01/10 08:22:40;;;;;;;12.95;9.88;;;3.90;82.90;;;;;;5034925;28;20245;-55
2021/01/10 08:25:18;;;;;;;12.30;11.10;;;3.80;83.20;;;;;;5051148;28;20334;-54
2021/01/10 08:27:45;;;;;;;9.85;8.80;;;3.80;83.00;;;;;;5050731;28;20222;-55
2021/01/10 08:30:14;;;;;;;10.50;7.95;;;3.80;83.40;;;;;;5049580;28;20200;-55
2021/01/10 08:32:41;;;;;;;10.25;9.05;;;3.70;82.90;;;;;;5040552;28;20250;-55
2021/01/10 08:35:09;;;;;;;12.52;8.77;;;3.80;83.60;;;;;;5051192;28;20252;-55
2021/01/10 08:37:37;;;;;;;11.23;8.55;;;3.70;83.50;;;;;;5033115;28;20696;-56
2021/01/10 08:40:06;;;;;;;15.17;10.60;;;3.80;83.70;;;;;;5031067;28;20270;-56
2021/01/10 08:42:33;;;;;;;11.57;9.03;;;3.80;83.60;;;;;;5050079;28;21384;-55
2021/01/10 08:45:17;;;;;;;10.40;8.97;;;3.90;83.90;;;;;;5046804;28;20634;-55
2021/01/10 08:47:44;;;;;;;10.93;9.83;;;4.00;83.40;;;;;;5041514;28;21074;-55
2021/01/10 08:50:12;;;;;;;10.87;9.33;;;4.10;82.50;;;;;;5036734;28;20773;-57
2021/01/10 08:52:55;;;;;;;10.40;8.63;;;4.10;82.70;;;;;;5037428;28;21244;-55
2021/01/10 08:55:36;;;;;;;8.57;7.77;;;4.20;83.60;;;;;;5040183;28;20633;-55
2021/01/10 08:58:03;;;;;;;11.40;8.30;;;4.30;84.10;;;;;;5050683;28;20695;-56
2021/01/10 09:00:30;;;;;;;12.33;8.60;;;4.50;83.40;;;;;;5035437;28;20707;-57
2021/01/10 09:03:11;;;;;;;10.50;9.40;;;4.60;82.00;;;;;;5030545;28;20697;-56
2021/01/10 09:05:38;;;;;;;9.13;8.20;;;4.70;82.20;;;;;;5044308;28;21049;-56
2021/01/10 09:08:07;;;;;;;8.00;7.20;;;4.80;81.50;;;;;;5042899;28;20667;-56
2021/01/10 09:10:37;;;;;;;8.47;7.60;;;5.00;80.70;;;;;;5040811;28;21037;-56
2021/01/10 09:13:05;;;;;;;9.90;8.30;;;5.20;79.60;;;;;;5050412;28;20689;-57
2021/01/10 09:15:33;;;;;;;10.43;8.50;;;5.30;78.40;;;;;;5049653;28;20669;-55
2021/01/10 09:18:02;;;;;;;9.27;7.27;;;5.40;77.70;;;;;;5081170;22;21325;-49
2021/01/10 09:20:29;;;;;;;8.70;7.80;;;5.50;78.40;;;;;;5063895;28;20655;-48
2021/01/10 09:22:57;;;;;;;7.93;7.13;;;5.60;77.90;;;;;;5087221;28;20653;-48
2021/01/10 09:25:24;;;;;;;8.63;6.63;;;5.90;76.70;;;;;;5088150;28;20633;-48
2021/01/10 09:28:07;;;;;;;7.40;6.50;;;6.10;75.10;;;;;;5065704;28;20695;-49
2021/01/10 09:30:34;;;;;;;8.27;7.47;;;6.20;73.40;;;;;;5052335;28;20732;-48
2021/01/10 09:33:01;;;;;;;6.87;6.17;;;6.20;72.70;;;;;;5060426;28;20694;-49
2021/01/10 09:35:28;;;;;;;7.50;6.70;;;6.20;72.60;;;;;;5051116;28;20666;-48
2021/01/10 09:37:55;;;;;;;8.70;7.50;;;6.20;72.30;;;;;;5067629;28;20775;-49
2021/01/10 09:40:22;;;;;;;8.60;7.77;;;6.20;72.30;;;;;;5055081;28;21019;-49
2021/01/10 09:42:51;;;;;;;9.23;8.30;;;6.30;74.00;;;;;;5065087;28;21046;-48
2021/01/10 09:45:20;;;;;;;8.80;7.90;;;6.50;72.80;;;;;;5030439;28;20657;-49
2021/01/10 09:47:46;;;;;;;8.10;7.40;;;6.70;73.90;;;;;;5066018;28;20756;-49
2021/01/10 09:50:14;;;;;;;9.33;6.80;;;6.90;71.50;;;;;;5047789;28;20669;-49
2021/01/10 09:52:48;;;;;;;8.20;7.50;;;7.20;69.20;;;;;;5061310;28;20693;-49
2021/01/10 09:55:15;;;;;;;8.00;7.20;;;7.40;67.10;;;;;;5048497;28;20653;-49
2021/01/10 09:57:41;;;;;;;6.73;6.03;;;7.50;65.40;;;;;;5068111;28;20694;-49
2021/01/10 10:00:15;;;;;;;8.50;7.70;;;7.70;66.30;;;;;;5049519;28;20672;-49
2021/01/10 10:02:42;;;;;;;7.33;6.63;;;7.90;63.90;;;;;;5029085;28;20639;-49
2021/01/10 10:05:10;;;;;;;6.63;5.73;;;7.90;62.80;;;;;;5045713;28;20664;-49
2021/01/10 10:07:37;;;;;;;6.40;5.80;;;8.20;62.00;;;;;;5061565;28;20693;-49
2021/01/10 10:10:05;;;;;;;6.80;6.17;;;8.30;60.30;;;;;;5037376;28;20677;-50
2021/01/10 10:12:32;;;;;;;7.00;6.30;;;8.30;59.70;;;;;;5051184;28;20685;-49
2021/01/10 10:15:00;;;;;;;6.37;5.83;;;8.30;59.50;;;;;;5045647;28;20761;-46
2021/01/10 10:17:29;;;;;;;6.03;5.43;;;8.60;59.70;;;;;;5050395;28;20685;-47
2021/01/10 10:19:56;;;;;;;6.07;5.50;;;8.90;59.00;;;;;;5048267;28;20673;-48
2021/01/10 10:22:25;;;;;;;6.23;5.57;;;9.20;57.70;;;;;;5060264;28;20646;-49
2021/01/10 10:24:52;;;;;;;6.73;6.13;;;9.70;56.30;;;;;;5047459;28;20682;-49
2021/01/10 10:27:18;;;;;;;7.07;6.47;;;10.10;53.90;;;;;;5056836;28;20654;-49
2021/01/10 10:29:45;;;;;;;6.77;6.17;;;10.50;53.10;;;;;;5047868;28;20637;-49
2021/01/10 10:32:12;;;;;;;7.27;6.67;;;11.10;52.10;;;;;;5065083;28;20711;-49
2021/01/10 10:34:40;;;;;;;6.50;5.80;;;11.70;49.90;;;;;;5067813;28;20676;-49
2021/01/10 10:37:07;;;;;;;6.57;6.07;;;12.10;47.90;;;;;;5058012;28;20666;-50
2021/01/10 10:39:35;;;;;;;7.27;6.57;;;12.00;46.30;;;;;;5048029;28;20657;-49
2021/01/10 10:42:01;;;;;;;6.50;6.00;;;11.90;45.90;;;;;;5066460;28;20621;-50
2021/01/10 10:44:28;;;;;;;6.80;6.13;;;11.40;45.70;;;;;;5070251;28;20744;-48
2021/01/10 10:46:55;;;;;;;6.37;5.43;;;10.90;46.30;;;;;;5022492;28;20645;-50
2021/01/10 10:49:22;;;;;;;7.40;5.63;;;10.50;46.50;;;;;;5050810;28;21009;-50
2021/01/10 10:51:49;;;;;;;7.83;7.23;;;10.40;47.50;;;;;;5059183;28;20763;-48
2021/01/10 10:54:16;;;;;;;5.83;5.33;;;10.70;47.60;;;;;;5051492;28;20719;-49
2021/01/10 10:56:43;;;;;;;6.43;5.90;;;11.10;47.60;;;;;;5063361;28;21005;-49
2021/01/10 10:59:10;;;;;;;5.80;5.30;;;11.80;45.50;;;;;;5060660;28;20688;-50
2021/01/10 11:01:38;;;;;;;6.50;6.00;;;12.30;44.50;;;;;;5062533;28;21257;-50
2021/01/10 11:04:05;;;;;;;6.30;5.80;;;12.60;43.80;;;;;;5064603;28;20679;-48
2021/01/10 11:06:32;;;;;;;7.03;6.53;;;12.90;42.90;;;;;;5051112;28;20977;-51
2021/01/10 11:09:00;;;;;;;7.20;6.57;;;13.20;42.40;;;;;;5050845;28;20960;-51
2021/01/10 11:11:39;;;;;;;6.33;5.73;;;13.50;41.50;;;;;;5060885;28;21248;-51
2021/01/10 11:14:07;;;;;;;6.27;5.77;;;13.40;41.30;;;;;;5049770;28;21200;-50
2021/01/10 11:16:34;;;;;;;5.37;4.87;;;13.00;41.30;;;;;;5059798;28;20733;-50
2021/01/10 11:19:01;;;;;;;7.40;6.90;;;12.60;41.20;;;;;;5046285;28;20696;-49
2021/01/10 11:21:32;;;;;;;6.50;6.03;;;12.40;41.70;;;;;;5058993;28;21048;-50
2021/01/10 11:23:59;;;;;;;8.00;7.30;;;12.70;42.00;;;;;;5055940;28;20666;-51
2021/01/10 11:26:26;;;;;;;6.47;5.87;;;13.30;41.20;;;;;;5059693;28;21192;-50
2021/01/10 11:28:53;;;;;;;4.50;4.10;;;14.00;39.90;;;;;;5055688;28;20685;-51
2021/01/10 11:31:20;;;;;;;5.43;4.90;;;14.50;38.50;;;;;;5060704;28;20660;-49
2021/01/10 11:33:47;;;;;;;5.50;5.00;;;14.50;37.20;;;;;;5056221;28;21312;-49
2021/01/10 11:36:14;;;;;;;6.73;6.13;;;14.00;36.90;;;;;;5067977;28;20688;-49
2021/01/10 11:38:41;;;;;;;6.57;5.97;;;13.40;37.60;;;;;;5070892;28;21122;-49
2021/01/10 11:41:09;;;;;;;6.77;6.17;;;13.00;38.40;;;;;;5067051;28;20728;-48
2021/01/10 11:43:36;;;;;;;6.80;6.20;;;12.90;39.50;;;;;;5057861;28;20657;-48
2021/01/10 11:46:04;;;;;;;6.40;5.90;;;13.10;39.70;;;;;;5056899;28;20668;-50
2021/01/10 11:48:31;;;;;;;6.07;5.57;;;13.50;39.30;;;;;;5049441;28;20662;-51
2021/01/10 11:50:58;;;;;;;5.70;5.20;;;14.00;39.60;;;;;;5049526;28;20956;-51
2021/01/10 11:53:25;;;;;;;6.30;5.70;;;14.30;38.50;;;;;;5051092;28;20703;-50
2021/01/10 11:55:52;;;;;;;7.50;6.70;;;14.50;37.50;;;;;;5061792;28;21029;-51
2021/01/10 11:58:19;;;;;;;5.47;5.07;;;14.60;37.40;;;;;;5042591;28;20661;-51
2021/01/10 12:00:49;;;;;;;5.60;5.20;;;14.80;37.20;;;;;;5056705;28;20621;-49
2021/01/10 12:03:16;;;;;;;6.43;5.93;;;14.90;36.10;;;;;;5054906;28;20661;-49
2021/01/10 12:05:43;;;;;;;5.03;4.73;;;15.10;35.70;;;;;;5052067;28;20929;-50
2021/01/10 12:08:10;;;;;;;4.50;4.10;;;14.90;34.80;;;;;;5064154;28;20716;-50
2021/01/10 12:10:37;;;;;;;4.90;4.50;;;14.40;34.90;;;;;;5051856;28;20660;-50
2021/01/10 12:13:04;;;;;;;5.00;4.60;;;14.10;36.30;;;;;;5070086;28;20688;-50
2021/01/10 12:15:33;;;;;;;4.70;4.20;;;14.00;36.70;;;;;;5069055;28;21023;-50
2021/01/10 12:17:59;;;;;;;5.00;4.50;;;13.50;36.30;;;;;;5069001;28;21043;-50
2021/01/10 12:20:26;;;;;;;5.17;4.77;;;13.20;36.60;;;;;;5068792;28;20621;-50
2021/01/10 12:22:53;;;;;;;4.63;4.23;;;13.00;36.90;;;;;;5069265;28;20664;-49
2021/01/10 12:25:20;;;;;;;3.97;3.67;;;13.20;36.50;;;;;;5063087;28;20666;-50
2021/01/10 12:27:47;;;;;;;5.00;4.60;;;13.20;36.40;;;;;;5047727;28;20702;-50
2021/01/10 12:30:14;;;;;;;4.10;3.80;;;12.90;36.50;;;;;;5029926;28;20635;-50
2021/01/10 12:32:42;;;;;;;4.47;4.07;;;12.50;37.30;;;;;;5069037;28;20661;-50
2021/01/10 12:35:10;;;;;;;4.67;4.30;;;12.40;37.80;;;;;;5069672;28;20664;-50
2021/01/10 12:37:37;;;;;;;4.97;4.57;;;12.70;37.80;;;;;;5068596;28;20688;-48
2021/01/10 12:40:04;;;;;;;4.57;4.17;;;13.10;37.20;;;;;;5069178;28;20633;-50
2021/01/10 12:42:31;;;;;;;6.77;4.10;;;13.50;36.50;;;;;;5068315;28;21181;-48
2021/01/10 12:44:58;;;;;;;4.53;4.13;;;13.60;36.10;;;;;;5065042;28;21171;-48
2021/01/10 12:47:25;;;;;;;4.50;4.10;;;13.60;36.20;;;;;;5049889;28;20716;-49
2021/01/10 12:49:52;;;;;;;4.30;4.00;;;13.60;36.00;;;;;;5048378;28;20788;-49
2021/01/10 12:52:19;;;;;;;4.30;3.83;;;13.50;35.70;;;;;;5066168;28;20887;-49
2021/01/10 12:54:46;;;;;;;4.27;3.97;;;13.30;36.30;;;;;;5068480;28;21194;-49
2021/01/10 12:57:12;;;;;;;3.70;3.20;;;13.10;35.30;;;;;;5068512;28;21183;-48